Time;durP1;ratioP1;P1;durP2;ratioP2;P2;SDS_P1;SDS_P2;PMS_P1;PMS_P2;Temp;Humidity;BMP_temperature;BMP_pressure;BME280_temperature;BME280_humidity;BME280_pressure;Samples;Min_cycle;Max_cycle;Signal;HPM_P1;HPM_P2
2023/12/04 00:03:01;;;;;;;21.20;14.70;;;;;;;-5.63;58.43;100025.31;10391334;28;20253;-70
2023/12/04 00:08:03;;;;;;;20.73;14.00;;;;;;;-4.78;58.11;99680.75;10392975;28;20229;-70
2023/12/04 00:13:04;;;;;;;19.20;14.13;;;;;;;-4.34;57.60;99600.72;10398040;28;20249;-69
2023/12/04 00:18:06;;;;;;;19.77;13.60;;;;;;;-5.07;58.22;99781.59;10400858;28;20317;-70
2023/12/04 00:23:08;;;;;;;18.57;13.20;;;;;;;-5.29;58.37;99769.69;10396044;28;20239;-69
2023/12/04 00:28:09;;;;;;;19.43;14.13;;;;;;;-5.38;59.00;99730.22;10400666;28;20782;-69
2023/12/04 00:33:11;;;;;;;19.77;13.97;;;;;;;-5.02;58.43;99629.94;10393428;28;20298;-69
2023/12/04 00:38:13;;;;;;;18.37;12.67;;;;;;;-5.53;58.55;99807.50;10398466;28;20266;-70
2023/12/04 00:43:14;;;;;;;18.80;12.90;;;;;;;-5.73;59.54;99741.63;10396853;28;20240;-70
2023/12/04 00:48:16;;;;;;;20.10;13.57;;;;;;;-5.13;58.74;99601.88;10396587;28;20237;-69
2023/12/04 00:53:18;;;;;;;19.13;13.57;;;;;;;-6.06;59.59;99857.06;10396923;28;20243;-69
2023/12/04 00:58:19;;;;;;;22.13;15.63;;;;;;;-4.99;57.99;99591.44;10397600;28;20672;-69
2023/12/04 01:03:21;;;;;;;16.83;12.67;;;;;;;-5.02;58.10;99588.19;10397309;28;20247;-69
2023/12/04 01:08:23;;;;;;;16.87;13.23;;;;;;;-5.74;59.08;99736.47;10393896;28;20237;-69
2023/12/04 01:13:25;;;;;;;18.57;13.43;;;;;;;-5.93;59.71;99745.25;10398045;28;20245;-69
2023/12/04 01:18:28;;;;;;;15.97;13.17;;;;;;;-6.26;60.58;99740.00;10395311;28;20253;-68
2023/12/04 01:23:30;;;;;;;19.83;12.77;;;;;;;-5.99;60.45;99648.31;10398126;28;20238;-69
2023/12/04 01:28:32;;;;;;;16.03;13.33;;;;;;;-6.03;60.57;99637.22;10395665;28;21650;-69
2023/12/04 01:33:34;;;;;;;18.17;13.27;;;;;;;-6.49;61.01;99739.34;10392125;28;20336;-68
2023/12/04 01:38:37;;;;;;;21.00;15.60;;;;;;;-5.85;60.31;99524.16;10394403;28;20986;-68
2023/12/04 01:43:39;;;;;;;18.47;12.90;;;;;;;-6.69;61.24;99739.50;10394527;28;20757;-68
2023/12/04 01:48:41;;;;;;;18.60;13.27;;;;;;;-6.81;62.15;99662.84;10426113;28;20381;-69
2023/12/04 01:53:43;;;;;;;25.13;16.73;;;;;;;-6.73;61.32;99636.47;10392676;28;20232;-68
2023/12/04 01:58:46;;;;;;;20.27;13.77;;;;;;;-6.36;60.99;99478.34;10391418;28;20766;-68
2023/12/04 02:03:48;;;;;;;19.80;14.93;;;;;;;-3.59;56.04;99195.00;10392368;28;20251;-68
2023/12/04 02:08:49;;;;;;;23.97;13.77;;;;;;;-5.44;56.09;99735.75;10389444;28;20585;-68
2023/12/04 02:13:51;;;;;;;17.17;13.50;;;;;;;-5.10;56.62;99524.25;10421201;28;20242;-69
2023/12/04 02:18:53;;;;;;;19.90;14.13;;;;;;;-6.17;58.92;99690.00;10389152;28;20736;-69
2023/12/04 02:23:55;;;;;;;19.97;14.80;;;;;;;-5.05;56.59;99518.75;10396616;28;20298;-68
2023/12/04 02:29:00;;;;;;;17.77;13.87;;;;;;;-5.15;56.64;99549.75;10392153;28;20322;-69
2023/12/04 02:34:06;;;;;;;19.77;14.30;;;;;;;-5.11;57.76;99456.47;10389059;28;20548;-69
2023/12/04 02:39:08;;;;;;;18.90;14.20;;;;;;;-4.27;56.34;99283.25;10390606;28;20292;-69
2023/12/04 02:44:10;;;;;;;21.87;15.47;;;;;;;-5.17;57.08;99512.50;10394252;28;20609;-70
2023/12/04 02:49:12;;;;;;;20.07;14.97;;;;;;;-4.73;56.99;99382.84;10391139;28;20325;-68
2023/12/04 02:54:13;;;;;;;23.87;15.73;;;;;;;-5.15;57.31;99481.91;10422517;28;20276;-69
2023/12/04 02:59:15;;;;;;;19.10;14.87;;;;;;;-5.82;58.42;99616.13;10389616;28;20243;-68
2023/12/04 03:04:19;;;;;;;22.30;14.63;;;;;;;-5.13;57.89;99374.84;10391652;28;20258;-67
2023/12/04 03:09:20;;;;;;;23.97;17.23;;;;;;;-5.75;57.70;99562.75;10390269;28;20234;-68
2023/12/04 03:14:42;;;;;;;21.53;16.70;;;;;;;-5.92;59.35;99501.13;10394327;28;20239;-68
2023/12/04 03:19:44;;;;;;;25.40;15.67;;;;;;;-6.16;59.41;99538.00;10388583;28;20309;-69
2023/12/04 03:24:46;;;;;;;23.37;15.37;;;;;;;-6.40;60.16;99584.44;10391477;28;20620;-69
2023/12/04 03:29:48;;;;;;;20.57;15.43;;;;;;;-5.00;58.36;99229.63;10386569;28;20242;-68
2023/12/04 03:34:49;;;;;;;19.67;13.90;;;;;;;-5.70;58.33;99477.28;10391815;28;20592;-69
2023/12/04 03:39:51;;;;;;;21.83;14.97;;;;;;;-5.56;58.70;99438.25;10383132;28;20239;-69
2023/12/04 03:44:53;;;;;;;20.10;14.40;;;;;;;-4.96;56.42;99460.78;10392963;28;20245;-69
2023/12/04 03:49:54;;;;;;;19.67;14.23;;;;;;;-5.06;57.21;99414.47;10398688;28;20258;-69
2023/12/04 03:54:56;;;;;;;20.97;14.63;;;;;;;-5.52;58.28;99483.22;10398852;28;20328;-69
2023/12/04 03:59:58;;;;;;;17.03;13.50;;;;;;;-4.51;55.84;99335.31;10397730;28;20233;-69
2023/12/04 04:04:59;;;;;;;18.20;13.53;;;;;;;-2.91;52.88;99222.50;10400660;28;20236;-69
2023/12/04 04:10:02;;;;;;;17.47;14.13;;;;;;;-4.90;56.48;99509.19;10400339;28;20252;-69
2023/12/04 04:15:04;;;;;;;20.70;15.00;;;;;;;-4.61;56.73;99361.19;10400762;28;20230;-69
2023/12/04 04:20:07;;;;;;;19.87;14.67;;;;;;;-5.59;58.51;99547.09;10395043;28;20239;-69
2023/12/04 04:25:09;;;;;;;20.03;15.00;;;;;;;-4.54;56.75;99310.22;10400103;28;20267;-69
2023/12/04 04:30:13;;;;;;;21.67;14.57;;;;;;;-4.78;57.80;99340.53;10397883;28;20613;-69
2023/12/04 04:35:15;;;;;;;20.30;13.93;;;;;;;-4.17;55.56;99346.19;10400523;28;20255;-68
2023/12/04 04:40:16;;;;;;;18.30;13.83;;;;;;;-3.11;54.24;99192.47;10395910;28;20242;-68
2023/12/04 04:45:18;;;;;;;19.37;13.93;;;;;;;-4.49;56.35;99431.88;10397462;28;20234;-68
2023/12/04 04:50:20;;;;;;;19.60;14.07;;;;;;;-4.07;55.93;99336.81;10392943;28;20235;-69
2023/12/04 04:55:22;;;;;;;20.40;15.50;;;;;;;-4.80;56.99;99480.72;10398163;28;20235;-70
2023/12/04 05:00:45;;;;;;;21.57;14.77;;;;;;;-4.27;56.56;99335.50;10394874;28;20254;-68
2023/12/04 05:05:46;;;;;;;21.07;15.43;;;;;;;-4.55;56.51;99415.66;10395704;28;20243;-69
2023/12/04 05:10:48;;;;;;;23.67;15.23;;;;;;;-3.28;53.73;99335.00;10394794;28;20215;-69
2023/12/04 05:15:50;;;;;;;19.87;13.57;;;;;;;-4.21;55.02;99512.81;10398885;28;20302;-69
2023/12/04 05:20:52;;;;;;;22.37;15.37;;;;;;;-2.41;52.46;99198.75;10400123;28;20307;-69
2023/12/04 05:25:53;;;;;;;23.27;15.50;;;;;;;-1.66;50.84;99194.81;10398775;28;20280;-69
2023/12/04 05:30:55;;;;;;;23.33;15.17;;;;;;;-3.22;51.87;99551.81;10431196;28;20522;-69
2023/12/04 05:35:57;;;;;;;19.47;14.47;;;;;;;-2.62;53.02;99258.81;10398594;28;20247;-69
2023/12/04 05:40:59;;;;;;;22.27;15.13;;;;;;;-2.17;50.97;99328.91;10395548;28;20301;-70
2023/12/04 05:46:01;;;;;;;19.73;13.77;;;;;;;-1.91;50.80;99321.75;10396806;28;20316;-70
2023/12/04 05:51:03;;;;;;;19.93;15.03;;;;;;;-2.03;50.50;99365.47;10397718;28;20263;-69
2023/12/04 05:56:06;;;;;;;17.20;13.07;;;;;;;-1.97;50.40;99374.66;10396183;28;20322;-68
2023/12/04 06:01:08;;;;;;;19.20;13.13;;;;;;;-2.71;51.54;99493.47;10395699;28;20286;-69
2023/12/04 06:06:10;;;;;;;17.63;14.03;;;;;;;-2.38;52.23;99326.09;10396393;28;20242;-69
2023/12/04 06:11:11;;;;;;;16.90;12.37;;;;;;;-2.28;50.95;99408.34;10392963;28;20243;-68
2023/12/04 06:16:13;;;;;;;17.37;12.97;;;;;;;-2.83;52.30;99464.63;10397697;28;20323;-69
2023/12/04 06:21:15;;;;;;;19.50;14.30;;;;;;;-2.28;52.16;99294.81;10392770;28;20588;-68
2023/12/04 06:26:17;;;;;;;16.93;12.20;;;;;;;-2.06;52.22;99212.78;10396401;28;20785;-69
2023/12/04 06:31:19;;;;;;;18.67;12.93;;;;;;;-3.04;52.42;99525.38;10394400;28;20224;-69
2023/12/04 06:36:21;;;;;;;16.03;12.83;;;;;;;-2.33;51.74;99339.72;10393259;28;20278;-69
2023/12/04 06:41:23;;;;;;;18.00;12.93;;;;;;;-2.64;53.28;99317.50;10393584;28;20268;-69
2023/12/04 06:46:28;;;;;;;20.53;14.63;;;;;;;-2.56;51.90;99407.72;10396987;28;20625;-69
2023/12/04 06:51:30;;;;;;;19.20;13.47;;;;;;;-3.06;52.20;99537.72;10394299;28;20518;-69
2023/12/04 06:56:32;;;;;;;19.40;14.70;;;;;;;-3.64;53.96;99607.75;10389325;28;20255;-69
2023/12/04 07:01:34;;;;;;;21.07;14.00;;;;;;;-1.56;51.76;99176.56;10393525;28;20240;-69
2023/12/04 07:06:39;;;;;;;18.67;13.17;;;;;;;-3.09;53.55;99465.44;10395436;28;20235;-69
2023/12/04 07:11:41;;;;;;;19.43;13.50;;;;;;;-1.99;50.97;99377.38;10394360;28;20720;-69
2023/12/04 07:16:43;;;;;;;18.60;12.93;;;;;;;-3.76;55.75;99417.63;10424128;28;20607;-69
2023/12/04 07:21:45;;;;;;;19.17;14.30;;;;;;;-3.65;56.32;99328.84;10400216;28;20647;-69
2023/12/04 07:26:46;;;;;;;17.77;13.00;;;;;;;-2.63;52.47;99421.34;10404006;28;20260;-69
2023/12/04 07:31:48;;;;;;;18.77;13.80;;;;;;;-3.88;55.85;99497.69;10401761;28;20742;-69
2023/12/04 07:36:50;;;;;;;16.43;13.50;;;;;;;-4.57;57.41;99565.53;10400053;28;20667;-69
2023/12/04 07:41:52;;;;;;;21.23;14.60;;;;;;;-4.31;57.04;99430.72;10435872;28;20260;-69
2023/12/04 07:46:54;;;;;;;18.67;13.80;;;;;;;-4.16;56.88;99377.47;10399873;28;20266;-69
2023/12/04 07:51:56;;;;;;;17.53;13.83;;;;;;;-3.76;56.37;99310.41;10431465;28;20233;-69
2023/12/04 07:56:58;;;;;;;18.17;13.10;;;;;;;-4.69;57.51;99504.44;10402149;28;20239;-69
2023/12/04 08:02:03;;;;;;;18.10;13.67;;;;;;;-3.89;56.93;99281.63;10400965;28;20330;-69
2023/12/04 08:07:05;;;;;;;19.40;13.73;;;;;;;-4.44;57.34;99386.22;10403155;28;20249;-69
2023/12/04 08:12:07;;;;;;;19.77;15.00;;;;;;;-4.78;57.96;99417.06;10396321;28;20762;-69
2023/12/04 08:17:08;;;;;;;14.57;12.50;;;;;;;-4.79;58.20;99422.38;10401854;28;20231;-69
2023/12/04 08:22:10;;;;;;;16.60;13.47;;;;;;;-4.15;57.67;99245.84;10401543;28;20240;-69
2023/12/04 08:27:12;;;;;;;23.37;15.80;;;;;;;-4.17;57.12;99320.91;10402652;28;20235;-69
2023/12/04 08:32:13;;;;;;;20.03;14.90;;;;;;;-4.38;58.43;99278.75;10399785;28;20232;-69
2023/12/04 08:37:15;;;;;;;20.07;14.07;;;;;;;-4.67;58.45;99366.78;10402038;28;20251;-69
2023/12/04 08:42:18;;;;;;;17.30;13.20;;;;;;;-4.41;58.45;99273.72;10394447;28;20729;-69
2023/12/04 08:47:24;;;;;;;20.03;14.17;;;;;;;-3.97;57.44;99259.47;10401936;28;20347;-69
2023/12/04 08:52:26;;;;;;;19.93;14.23;;;;;;;-3.83;56.90;99250.69;10397623;28;20310;-69
2023/12/04 08:57:28;;;;;;;18.07;13.23;;;;;;;-4.47;58.25;99385.59;10395082;28;20325;-69
2023/12/04 09:02:30;;;;;;;21.20;14.77;;;;;;;-4.90;59.35;99460.41;10396576;28;20251;-68
2023/12/04 09:07:32;;;;;;;21.17;14.17;;;;;;;-3.51;57.27;99160.47;10395654;28;20240;-68
2023/12/04 09:12:37;;;;;;;18.47;13.07;;;;;;;-3.72;56.34;99356.31;10400597;28;20231;-68
2023/12/04 09:17:39;;;;;;;19.27;14.47;;;;;;;-4.26;59.17;99297.13;10399134;28;20263;-68
2023/12/04 09:22:48;;;;;;;17.10;13.53;;;;;;;-3.70;57.51;99265.56;10396988;28;20623;-69
2023/12/04 09:27:55;;;;;;;26.13;18.67;;;;;;;-3.78;57.86;99276.53;10398574;28;20227;-68
2023/12/04 09:32:57;;;;;;;24.43;17.10;;;;;;;-2.55;55.37;99186.66;10398598;28;20706;-70
2023/12/04 09:37:59;;;;;;;26.43;16.97;;;;;;;-3.09;56.02;99305.75;10398012;28;20231;-70
2023/12/04 09:43:01;;;;;;;23.90;14.60;;;;;;;-3.60;57.25;99327.56;10397665;28;20267;-69
2023/12/04 09:48:03;;;;;;;20.47;14.40;;;;;;;-1.80;55.05;99037.63;10396970;28;20332;-69
2023/12/04 09:53:10;;;;;;;19.40;14.10;;;;;;;-0.98;52.15;99206.00;10396656;28;20619;-70
2023/12/04 09:58:14;;;;;;;19.00;14.07;;;;;;;-2.99;55.28;99444.75;10395271;28;20239;-69
2023/12/04 10:03:16;;;;;;;19.07;14.90;;;;;;;-3.32;57.13;99374.56;10394606;28;20246;-69
2023/12/04 10:08:18;;;;;;;19.37;14.70;;;;;;;-2.38;55.66;99218.66;10396429;28;20315;-69
2023/12/04 10:13:19;;;;;;;22.47;15.03;;;;;;;-0.24;51.67;99109.75;10396805;28;20773;-69
2023/12/04 10:18:41;;;;;;;19.00;13.20;;;;;;;-2.84;56.03;99363.47;10394876;28;20244;-69
2023/12/04 10:23:44;;;;;;;23.03;16.10;;;;;;;-3.32;57.53;99344.00;10397414;28;20267;-68
2023/12/04 10:29:00;;;;;;;18.77;14.60;;;;;;;-3.15;57.78;99272.19;10425102;28;20896;-69
2023/12/04 10:34:04;;;;;;;19.03;14.17;;;;;;;-1.33;55.30;98990.13;10395516;28;20260;-69
2023/12/04 10:39:06;;;;;;;20.33;15.10;;;;;;;-3.08;57.81;99278.66;10396262;28;20228;-70
2023/12/04 10:44:08;;;;;;;19.23;15.23;;;;;;;-2.24;55.74;99220.22;10397425;28;20248;-69
2023/12/04 10:49:12;;;;;;;19.77;14.47;;;;;;;-1.58;54.65;99153.06;10394991;28;20236;-69
2023/12/04 10:54:15;;;;;;;20.77;13.90;;;;;;;-0.46;53.52;98953.84;10392956;28;20309;-69
2023/12/04 10:59:25;;;;;;;19.00;14.20;;;;;;;-1.13;53.67;99183.63;10393314;28;20228;-69
2023/12/04 11:06:13;;;;;;;15.30;13.20;;;;;;;-2.97;58.20;99151.41;10591297;27;20402;-69
2023/12/04 11:11:35;;;;;;;16.90;13.57;;;;;;;-2.14;56.63;99132.94;10454472;28;20244;-69
2023/12/04 11:16:48;;;;;;;17.77;13.07;;;;;;;-1.50;55.67;98994.97;10472400;28;20737;-68
2023/12/04 11:21:50;;;;;;;18.50;13.03;;;;;;;-2.84;56.99;99285.72;10489827;28;20316;-69
2023/12/04 11:26:53;;;;;;;15.47;12.67;;;;;;;-2.49;57.15;99162.66;10461057;28;20227;-68
2023/12/04 11:31:55;;;;;;;17.03;13.20;;;;;;;-1.70;55.80;99029.88;10480807;28;20644;-69
2023/12/04 11:36:58;;;;;;;19.47;12.77;;;;;;;-1.10;55.26;98959.34;10481777;28;20234;-69
2023/12/04 11:42:00;;;;;;;17.53;13.47;;;;;;;-1.51;55.29;99100.91;10477123;28;20291;-69
2023/12/04 11:47:06;;;;;;;16.53;12.60;;;;;;;-0.75;54.28;98958.97;10477600;28;20247;-69
2023/12/04 11:52:09;;;;;;;15.63;12.20;;;;;;;-0.88;54.18;99074.75;10512201;28;20237;-69
2023/12/04 11:57:11;;;;;;;18.23;12.93;;;;;;;-0.16;54.14;98875.06;10518119;28;20683;-69
2023/12/04 12:02:13;;;;;;;17.67;13.57;;;;;;;-1.32;55.67;99067.94;10507562;28;20240;-69
2023/12/04 12:07:15;;;;;;;16.03;13.03;;;;;;;-1.32;54.41;99144.88;10511557;28;20226;-69
2023/12/04 12:12:19;;;;;;;16.23;12.23;;;;;;;-2.75;57.56;99302.56;10512107;28;20609;-69
2023/12/04 12:17:21;;;;;;;19.47;13.80;;;;;;;-2.18;58.83;99018.75;10490860;28;20246;-69
2023/12/04 12:22:23;;;;;;;18.40;13.17;;;;;;;-2.50;58.05;99157.50;10485686;28;20234;-69
2023/12/04 12:27:25;;;;;;;17.80;14.30;;;;;;;-2.52;58.57;99123.56;10487438;28;20265;-69
2023/12/04 12:32:27;;;;;;;16.77;13.63;;;;;;;-1.34;56.44;98947.31;10478943;28;20272;-69
2023/12/04 12:37:34;;;;;;;21.03;13.70;;;;;;;-2.32;59.71;98951.69;10488819;28;20326;-69
2023/12/04 12:42:41;;;;;;;17.93;14.40;;;;;;;-0.88;55.50;98947.84;10481787;28;20238;-70
2023/12/04 12:47:45;;;;;;;20.53;14.27;;;;;;;-2.57;60.45;98978.16;10473398;28;20230;-70
2023/12/04 12:52:48;;;;;;;18.43;13.50;;;;;;;-1.65;57.52;99046.94;10479561;28;20227;-69
2023/12/04 12:57:50;;;;;;;17.73;13.60;;;;;;;-1.30;57.60;98885.72;10484372;28;20228;-70
2023/12/04 13:02:53;;;;;;;16.73;12.77;;;;;;;-1.87;57.48;99026.81;10481340;28;20242;-69
2023/12/04 13:07:55;;;;;;;17.70;12.70;;;;;;;-2.51;59.81;99041.41;10481670;28;20732;-70
2023/12/04 13:12:59;;;;;;;17.40;12.10;;;;;;;-1.50;59.13;98763.22;10487057;28;20537;-70
2023/12/04 13:18:02;;;;;;;17.17;12.87;;;;;;;-2.65;59.67;99059.13;10484620;28;20623;-69
2023/12/04 13:23:06;;;;;;;15.37;12.30;;;;;;;-2.23;58.97;99014.84;10480539;28;20231;-69
2023/12/04 13:28:07;;;;;;;19.47;12.83;;;;;;;-1.30;58.86;98738.72;10483171;28;20250;-69
2023/12/04 13:33:20;;;;;;;16.20;13.10;;;;;;;-2.38;60.21;98946.94;10483532;28;20227;-69
2023/12/04 13:38:22;;;;;;;18.50;12.73;;;;;;;-2.47;60.33;98945.06;10484804;28;20223;-69
2023/12/04 13:43:51;;;;;;;20.20;14.03;;;;;;;-2.23;59.45;98930.97;10484105;28;20228;-69
2023/12/04 13:48:53;;;;;;;18.07;13.50;;;;;;;-1.45;58.59;98803.84;10480155;28;20728;-69
2023/12/04 13:53:56;;;;;;;17.87;13.40;;;;;;;-2.11;60.00;98867.88;10484416;28;20314;-69
2023/12/04 13:59:04;;;;;;;17.23;12.40;;;;;;;-2.05;60.12;98863.94;10471679;28;20234;-69
2023/12/04 14:04:08;;;;;;;19.43;14.77;;;;;;;-1.94;59.92;98840.25;10469614;28;20236;-69
2023/12/04 14:09:14;;;;;;;15.70;12.20;;;;;;;-1.86;59.57;98858.00;10477682;28;20705;-70
2023/12/04 14:14:16;;;;;;;15.60;12.03;;;;;;;-1.76;59.31;98874.66;10468782;28;20656;-70
2023/12/04 14:19:21;;;;;;;17.27;12.77;;;;;;;-0.93;56.84;98824.78;10475987;28;20695;-69
2023/12/04 14:24:22;;;;;;;16.07;12.40;;;;;;;-2.11;60.32;98851.31;10473341;28;20232;-69
2023/12/04 14:29:24;;;;;;;18.10;12.77;;;;;;;-1.25;58.82;98744.38;10475098;28;20313;-69
2023/12/04 14:34:26;;;;;;;18.27;12.70;;;;;;;-0.67;58.14;98675.38;10471887;28;20241;-69
2023/12/04 14:39:28;;;;;;;16.37;13.17;;;;;;;-2.02;60.30;98849.72;10460661;28;20494;-68
2023/12/04 14:44:57;;;;;;;20.43;14.83;;;;;;;-1.11;59.55;98663.59;10472222;28;20543;-72
2023/12/04 14:50:48;;;;;;;18.13;12.93;;;;;;;-1.62;59.70;98781.66;10475298;28;20203;-69
2023/12/04 14:57:28;;;;;;;15.27;12.40;;;;;;;-2.36;61.19;98897.03;10454127;28;20223;-69
2023/12/04 17:47:15;;;;;;;20.27;14.67;;;;;;;-3.99;67.03;98536.53;10440377;27;20797;-34
2023/12/04 17:52:17;;;;;;;21.53;16.53;;;;;;;-3.58;66.74;98446.06;10484763;28;20306;-34
2023/12/04 17:57:20;;;;;;;22.33;14.20;;;;;;;-3.03;65.73;98325.53;10439732;28;20274;-34
2023/12/04 18:02:22;;;;;;;22.17;15.47;;;;;;;-3.50;67.29;98374.84;10402034;28;20261;-34
2023/12/04 18:07:24;;;;;;;26.17;16.87;;;;;;;-3.65;67.42;98396.06;10437124;28;20806;-34
2023/12/04 18:12:26;;;;;;;22.23;16.93;;;;;;;-3.41;66.57;98366.19;10437485;28;20232;-36
2023/12/04 18:17:27;;;;;;;21.37;15.47;;;;;;;-1.90;63.06;98239.53;10438301;28;20336;-34
2023/12/04 18:22:29;;;;;;;19.13;14.63;;;;;;;-2.81;63.93;98437.06;10455656;28;20239;-35
2023/12/04 18:27:32;;;;;;;16.80;13.03;;;;;;;-3.19;64.93;98505.69;10470019;28;20240;-44
2023/12/04 18:32:34;;;;;;;18.33;13.10;;;;;;;-3.43;65.46;98527.69;10477248;28;20850;-44
2023/12/04 18:37:57;;;;;;;18.37;14.13;;;;;;;-3.52;66.23;98508.34;10491225;28;20219;-42
2023/12/04 18:43:00;;;;;;;22.40;14.60;;;;;;;-3.53;67.07;98454.38;10463229;28;20723;-46
2023/12/04 18:48:07;;;;;;;20.47;15.53;;;;;;;-3.81;67.34;98532.44;10496789;28;20226;-44
2023/12/04 18:53:10;;;;;;;20.83;13.83;;;;;;;-2.68;67.03;98238.66;10480435;28;20321;-45
2023/12/04 18:58:13;;;;;;;19.30;14.97;;;;;;;-3.26;66.30;98463.50;10463457;28;20260;-45
2023/12/04 19:03:15;;;;;;;16.90;13.90;;;;;;;-2.27;62.46;98575.72;10455270;28;20227;-44
2023/12/04 19:08:17;;;;;;;19.00;14.23;;;;;;;-2.53;64.25;98557.81;10462231;28;20227;-44
2023/12/04 19:13:19;;;;;;;19.40;14.03;;;;;;;-2.71;66.27;98447.56;10464072;28;20318;-44
2023/12/04 19:18:21;;;;;;;18.63;14.43;;;;;;;-3.43;66.90;98583.44;10468405;28;20228;-44
2023/12/04 19:23:23;;;;;;;23.37;15.13;;;;;;;-2.76;65.83;98445.34;10456373;28;20473;-44
2023/12/04 19:28:29;;;;;;;18.90;14.70;;;;;;;-2.38;65.22;98412.38;9523484;28;10000216;-44
2023/12/04 19:33:31;;;;;;;20.83;15.53;;;;;;;-1.98;64.39;98368.72;10384774;28;20233;-46
2023/12/04 19:38:33;;;;;;;21.08;15.57;;;;;;;-1.40;62.96;98441.28;9489850;28;10001068;-44
2023/12/04 19:43:35;;;;;;;18.93;14.73;;;;;;;-1.28;61.18;98499.72;10341905;28;20287;-45
2023/12/04 19:48:37;;;;;;;18.13;14.83;;;;;;;-0.65;60.88;98396.72;5320211;28;10002139;-44
2023/12/04 19:53:39;;;;;;;18.57;13.13;;;;;;;-0.78;60.64;98456.63;9128529;28;10001013;-45
2023/12/04 19:58:40;;;;;;;17.77;13.17;;;;;;;-0.73;61.20;98425.50;10372269;28;20243;-44
2023/12/04 20:03:43;;;;;;;16.40;12.03;;;;;;;-0.44;60.62;98417.50;10347536;28;20238;-44
2023/12/04 20:08:45;;;;;;;17.07;12.97;;;;;;;-0.20;59.03;98458.19;10360397;28;20234;-44
2023/12/04 20:13:48;;;;;;;19.93;12.90;;;;;;;-1.45;61.97;98608.81;10373584;28;20237;-43
2023/12/04 20:18:50;;;;;;;23.20;16.40;;;;;;;-2.18;64.08;98688.47;10370944;28;20655;-43
2023/12/04 20:23:53;;;;;;;21.23;14.30;;;;;;;-1.52;62.80;98558.69;10371781;28;20238;-44
2023/12/04 20:28:55;;;;;;;18.87;12.93;;;;;;;-0.81;60.76;98490.09;10365692;28;20256;-46
2023/12/04 20:33:57;;;;;;;21.10;15.23;;;;;;;-1.52;62.85;98536.88;10392120;28;20369;-46
2023/12/04 20:38:59;;;;;;;19.00;14.27;;;;;;;-0.72;61.11;98396.47;10391079;28;20233;-43
2023/12/04 20:44:01;;;;;;;16.87;13.13;;;;;;;-0.45;60.86;98355.44;10383091;28;20253;-45
2023/12/04 20:49:03;;;;;;;22.50;14.27;;;;;;;-0.59;60.90;98429.44;10394654;28;22080;-45
2023/12/04 20:54:05;;;;;;;21.30;15.30;;;;;;;-0.47;60.71;98444.09;10411490;28;20372;-44
2023/12/04 20:59:07;;;;;;;21.20;14.83;;;;;;;-0.82;61.05;98511.25;10410684;28;20643;-43
2023/12/04 21:04:09;;;;;;;18.20;13.33;;;;;;;-1.87;63.04;98625.53;10393234;28;20235;-43
2023/12/04 21:09:12;;;;;;;15.33;13.37;;;;;;;-1.27;61.94;98580.13;10389938;28;20242;-44
2023/12/04 21:14:14;;;;;;;18.47;13.17;;;;;;;-1.88;63.53;98610.78;10408620;28;20641;-44
2023/12/04 21:19:16;;;;;;;18.00;14.07;;;;;;;-2.27;65.35;98610.63;10395337;28;20542;-45
2023/12/04 21:24:19;;;;;;;19.00;15.97;;;;;;;-1.44;64.82;98390.88;10397235;28;20329;-43
2023/12/04 21:29:21;;;;;;;19.03;14.70;;;;;;;-2.16;64.63;98600.03;10394479;28;20871;-45
2023/12/04 21:34:23;;;;;;;18.10;14.10;;;;;;;-2.05;65.24;98536.22;10392469;28;20239;-45
2023/12/04 21:39:25;;;;;;;18.33;13.37;;;;;;;-0.98;62.27;98412.03;10401774;28;20237;-45
2023/12/04 21:44:27;;;;;;;16.30;13.33;;;;;;;-1.59;63.30;98512.97;10351981;28;20245;-45
2023/12/04 21:49:29;;;;;;;19.23;13.33;;;;;;;-1.66;64.30;98459.41;10409877;28;20288;-45
2023/12/04 21:54:31;;;;;;;17.93;13.40;;;;;;;-0.18;61.03;98312.47;10393018;28;20227;-45
2023/12/04 21:59:33;;;;;;;19.20;15.13;;;;;;;-0.15;60.68;98363.91;10398763;28;20916;-44
2023/12/04 22:04:35;;;;;;;20.67;15.00;;;;;;;-1.70;63.73;98534.91;10410936;28;20692;-43
2023/12/04 22:09:37;;;;;;;24.00;15.80;;;;;;;-1.53;64.93;98423.22;10393670;28;20233;-43
2023/12/04 22:14:39;;;;;;;23.27;16.90;;;;;;;-0.73;63.76;98309.91;10385139;28;20558;-44
2023/12/04 22:19:40;;;;;;;23.67;17.10;;;;;;;-1.84;65.11;98530.88;10401498;28;20211;-45
2023/12/04 22:24:42;;;;;;;23.03;16.10;;;;;;;-0.33;60.85;98332.38;10389304;28;20462;-48
2023/12/04 22:29:44;;;;;;;20.60;15.80;;;;;;;0.21;59.46;98375.28;10391096;28;20599;-45
2023/12/04 22:34:46;;;;;;;19.10;15.03;;;;;;;-0.57;60.75;98533.47;10399818;28;20787;-46
2023/12/04 22:39:48;;;;;;;19.00;14.97;;;;;;;-0.14;59.40;98499.69;10408783;28;20303;-42
2023/12/04 22:44:50;;;;;;;22.17;15.10;;;;;;;-0.81;62.70;98497.97;10410193;28;20259;-44
2023/12/04 22:49:52;;;;;;;18.10;15.10;;;;;;;0.23;59.81;98388.28;10386209;28;20214;-45
2023/12/04 22:54:54;;;;;;;22.50;16.67;;;;;;;-1.55;63.32;98619.28;10411320;28;20235;-45
2023/12/04 22:59:55;;;;;;;34.87;22.30;;;;;;;-1.34;62.59;98600.84;10405581;28;20239;-44
2023/12/04 23:04:57;;;;;;;21.90;17.50;;;;;;;-1.14;63.34;98472.19;10400716;28;20350;-45
2023/12/04 23:09:59;;;;;;;23.97;17.00;;;;;;;0.62;59.00;98365.03;10408671;28;20569;-45
2023/12/04 23:15:01;;;;;;;32.40;24.03;;;;;;;0.43;59.71;98373.13;10412772;28;20237;-45
2023/12/04 23:20:03;;;;;;;22.67;17.47;;;;;;;-0.15;60.56;98469.09;10409167;28;20257;-45
2023/12/04 23:25:06;;;;;;;23.73;17.80;;;;;;;0.33;59.26;98422.41;10411801;28;20249;-45
2023/12/04 23:30:08;;;;;;;21.00;15.60;;;;;;;0.10;60.49;98421.03;10405485;28;20237;-46
2023/12/04 23:35:11;;;;;;;20.30;14.87;;;;;;;0.33;59.95;98411.88;10383389;28;20246;-44
2023/12/04 23:40:13;;;;;;;16.73;13.27;;;;;;;-0.07;59.42;98561.25;10396500;28;20690;-44
2023/12/04 23:45:14;;;;;;;18.40;14.00;;;;;;;-0.70;60.30;98640.66;10394615;28;20251;-45
2023/12/04 23:50:16;;;;;;;21.20;15.00;;;;;;;-0.23;61.26;98469.00;10406186;28;20335;-43
2023/12/04 23:55:18;;;;;;;17.80;13.10;;;;;;;-1.19;62.14;98627.53;10402963;28;20797;-44
